METAR Data
IDs: Format: Raw Decoded Include TAF

Data at: 2117 UTC 19 May 2019

PATK 192053Z VRB06KT 10SM FEW060 BKN200 16/02 A2967 RMK AO2 SLP049 T01610022 56010 $
PATK 191953Z VRB04KT 10SM FEW060 BKN200 17/01 A2967 RMK AO2 SLP050 T01670006 $
PATK 191853Z VRB03KT 10SM FEW060 BKN200 15/02 A2968 RMK AO2 SLP052 T01500022 $
PATK 191753Z VRB03KT 10SM FEW060 BKN200 12/03 A2970 RMK AO2 SLP060 T01170028 10117 20017 58018 $
PATK 191653Z 05004KT 10SM CLR 08/03 A2972 RMK AO2 SLP067 T00830033 $
PATK 191553Z 07003KT 10SM CLR 05/02 A2974 RMK AO2 SLP074 T00500022 $
PATK 191453Z AUTO 08004KT 10SM CLR 03/01 A2975 RMK AO2 SLP079 T00280006 58015 TSNO $
PATK 191353Z AUTO 00000KT 10SM CLR 02/01 A2977 RMK AO2 SLP086 T00220006 TSNO $
PATK 191253Z AUTO 00000KT 10SM CLR 02/01 A2979 RMK AO2 SLP091 T00220006 TSNO $
PATK 191153Z AUTO 00000KT 10SM CLR 03/01 A2980 RMK AO2 SLP094 T00280011 10133 20022 57002 TSNO $
PATK 191053Z AUTO 00000KT 10SM CLR 03/01 A2980 RMK AO2 SLP094 T00280011 TSNO $
PATK 190953Z AUTO 00000KT 10SM CLR 03/02 A2980 RMK AO2 SLP095 T00330017 TSNO
PATK 190853Z AUTO 00000KT 10SM CLR 05/02 A2980 RMK AO2 SLP096 T00500022 401560000 51002 TSNO
PATK 190753Z AUTO 00000KT 10SM CLR 08/03 A2980 RMK AO2 SLP094 T00830033 TSNO
PATK 190653Z AUTO 00000KT 10SM CLR 10/04 A2980 RMK AO2 SLP095 T01000039 TSNO
PATK 190553Z AUTO 34003KT 10SM CLR 13/02 A2980 RMK AO2 SLP093 T01330022 10156 20133 51004 TSNO
PATK 190453Z AUTO 01005KT 10SM CLR 13/02 A2979 RMK AO2 SLP091 T01330022 TSNO
PATK 190353Z 36005KT 10SM CLR 14/03 A2979 RMK AO2 SLP092 T01390028
PATK 190253Z 33007KT 10SM BKN070 OVC090 14/03 A2979 RMK AO2 SLP090 T01390028 53004
PATK 190153Z 21004KT 10SM OVC100 15/01 A2978 RMK AO2 SLP087 T01500006
PATK 190053Z AUTO 20008KT 10SM SCT050 BKN110 15/01 A2977 RMK AO2 SLP085 T01500011 TSNO
PATK 182353Z VRB03KT 10SM SCT050 BKN200 14/01 A2977 RMK AO2 SLP086 T01440006 10144 20100 50000
PATK 182253Z VRB05KT 10SM SCT050 OVC200 14/01 A2978 RMK AO2 SLP086 T01390011
PATK 182153Z VRB05KT 10SM SCT050 14/02 A2977 RMK AO2 SLP086 T01390022
PATK 182053Z 20009KT 10SM CLR 12/04 A2977 RMK AO2 SLP086 T01220044 53003
PATK 181953Z 18005KT 10SM CLR 12/02 A2976 RMK AO2 SLP082 T01170022
PATK 181853Z 27003KT 10SM SCT150 11/02 A2976 RMK AO2 SLP083 T01060022
PATK 181753Z 00000KT 10SM CLR 10/03 A2976 RMK AO2 SLP082 T01000028 10100 20000 55000
PATK 181653Z 00000KT 10SM CLR 08/03 A2976 RMK AO2 SLP081 T00780028
PATK 181553Z 00000KT 10SM CLR 06/02 A2977 RMK AO2 SLP083 T00610022
PATK 181453Z AUTO 00000KT 10SM CLR 03/02 A2977 RMK AO2 SLP083 T00330017 50002 TSNO
PATK 181353Z AUTO 00000KT 10SM CLR 01/M01 A2977 RMK AO2 SLP084 T00061006 TSNO
PATK 181253Z AUTO 00000KT 10SM CLR 01/M01 A2976 RMK AO2 SLP081 T00061006 TSNO
PATK 181153Z AUTO 00000KT 10SM CLR 01/00 A2976 RMK AO2 SLP081 60000 70001 T00060000 10094 20006 53005 TSNO
PATK 181053Z AUTO 00000KT 10SM CLR 03/01 A2975 RMK AO2 SLP079 T00280011 TSNO
PATK 180953Z AUTO 00000KT 10SM FEW075 04/02 A2975 RMK AO2 SLP078 T00390022 TSNO